Time;durP1;ratioP1;P1;durP2;ratioP2;P2;SDS_P1;SDS_P2;PMS_P1;PMS_P2;Temp;Humidity;BMP_temperature;BMP_pressure;BME280_temperature;BME280_humidity;BME280_pressure;Samples;Min_cycle;Max_cycle;Signal;HPM_P1;HPM_P2
2022/03/01 00:02:15;;;;;;;12.20;2.60;;;6.20;99.90;;;;;;4867510;29;20373;-91
2022/03/01 00:04:40;;;;;;;13.15;2.90;;;6.10;99.90;;;;;;4869851;29;20021;-92
2022/03/01 00:07:07;;;;;;;13.05;3.40;;;6.10;99.90;;;;;;4869667;29;20139;-90
2022/03/01 00:09:33;;;;;;;10.95;2.67;;;6.10;99.90;;;;;;4871177;29;20063;-91
2022/03/01 00:11:59;;;;;;;9.95;2.05;;;6.20;99.90;;;;;;4868030;29;20033;-91
2022/03/01 00:14:25;;;;;;;15.95;4.20;;;6.20;99.90;;;;;;4868174;29;20053;-90
2022/03/01 00:16:51;;;;;;;17.13;2.47;;;6.10;99.90;;;;;;4869955;29;20163;-91
2022/03/01 00:19:16;;;;;;;13.07;2.53;;;6.10;99.90;;;;;;4879513;29;20029;-91
2022/03/01 00:21:42;;;;;;;12.50;2.70;;;6.10;99.90;;;;;;4883068;29;20112;-90
2022/03/01 00:24:08;;;;;;;17.42;2.45;;;6.10;99.90;;;;;;4882690;29;20468;-91
2022/03/01 00:26:33;;;;;;;15.77;2.42;;;6.10;99.90;;;;;;4882710;29;20036;-92
2022/03/01 00:28:59;;;;;;;14.80;2.13;;;6.10;99.90;;;;;;4882356;29;20033;-91
2022/03/01 00:31:25;;;;;;;13.93;2.22;;;6.10;99.90;;;;;;4882651;29;20051;-91
2022/03/01 00:33:51;;;;;;;10.45;2.20;;;6.10;99.90;;;;;;4882702;29;20033;-91
2022/03/01 00:36:16;;;;;;;11.68;2.13;;;6.10;99.90;;;;;;4882942;29;20021;-91
2022/03/01 00:38:42;;;;;;;11.82;1.85;;;6.10;99.90;;;;;;4882212;29;20029;-92
2022/03/01 00:41:08;;;;;;;10.05;2.30;;;6.10;99.90;;;;;;4882403;29;20447;-90
2022/03/01 00:43:33;;;;;;;15.13;2.30;;;6.10;99.90;;;;;;4882236;29;20471;-90
2022/03/01 00:45:59;;;;;;;11.15;2.20;;;6.10;99.90;;;;;;4881883;29;20029;-89
2022/03/01 00:48:25;;;;;;;9.05;1.83;;;6.10;99.90;;;;;;4886277;29;20129;-91
2022/03/01 00:50:50;;;;;;;12.55;2.80;;;6.10;99.90;;;;;;4889424;29;20039;-91
2022/03/01 00:53:16;;;;;;;15.50;2.58;;;6.10;99.90;;;;;;4884763;29;20506;-91
2022/03/01 00:55:42;;;;;;;10.00;1.70;;;6.00;99.90;;;;;;4885313;29;20036;-91
2022/03/01 00:58:08;;;;;;;11.93;1.75;;;6.00;99.90;;;;;;4889155;29;20142;-90
2022/03/01 01:00:34;;;;;;;11.18;1.83;;;6.00;99.90;;;;;;4883861;29;20041;-91
2022/03/01 01:03:01;;;;;;;13.48;2.05;;;5.90;99.90;;;;;;4883344;29;20029;-90
2022/03/01 01:05:27;;;;;;;14.38;2.28;;;5.90;99.90;;;;;;4882265;29;20044;-91
2022/03/01 01:07:53;;;;;;;17.35;2.72;;;5.90;99.90;;;;;;4884535;29;20029;-91
2022/03/01 01:10:19;;;;;;;7.55;2.05;;;5.80;99.90;;;;;;4888804;29;20041;-91
2022/03/01 01:12:46;;;;;;;12.40;1.98;;;5.80;99.90;;;;;;4893148;29;20116;-91
2022/03/01 01:15:14;;;;;;;11.80;2.55;;;5.80;99.90;;;;;;4892785;29;20057;-91
2022/03/01 01:17:39;;;;;;;13.85;2.05;;;5.70;99.90;;;;;;4889404;29;20100;-90
2022/03/01 01:20:06;;;;;;;16.83;2.60;;;5.70;99.90;;;;;;4893003;29;20510;-89
2022/03/01 01:22:42;;;;;;;10.73;2.90;;;5.60;99.90;;;;;;4893170;29;20051;-90
2022/03/01 01:25:19;;;;;;;11.38;2.25;;;5.60;99.90;;;;;;4892128;29;20033;-90
2022/03/01 01:27:48;;;;;;;15.45;2.40;;;5.60;99.90;;;;;;4884841;29;20021;-92
2022/03/01 01:30:17;;;;;;;10.60;2.08;;;5.50;99.90;;;;;;4889508;29;20037;-92
2022/03/01 01:32:44;;;;;;;18.90;3.22;;;5.50;99.90;;;;;;4886034;29;20152;-91
2022/03/01 01:35:12;;;;;;;16.58;2.83;;;5.40;99.90;;;;;;4891863;29;20033;-91
2022/03/01 01:37:38;;;;;;;16.63;3.20;;;5.40;99.90;;;;;;4890035;29;20045;-91
2022/03/01 01:40:05;;;;;;;16.52;2.97;;;5.30;99.90;;;;;;4889303;29;20488;-90
2022/03/01 01:42:31;;;;;;;17.83;3.30;;;5.30;99.90;;;;;;4892560;29;20009;-93
2022/03/01 01:44:57;;;;;;;13.30;2.78;;;5.20;99.90;;;;;;4896044;29;20029;-90
2022/03/01 01:47:22;;;;;;;14.95;2.72;;;5.20;99.90;;;;;;4895997;29;20029;-90
2022/03/01 01:49:48;;;;;;;21.63;2.97;;;5.20;99.90;;;;;;4895444;29;20170;-90
2022/03/01 01:52:14;;;;;;;16.02;3.22;;;5.10;99.90;;;;;;4894272;29;20037;-89
2022/03/01 01:54:40;;;;;;;14.68;3.08;;;5.00;99.90;;;;;;4887922;29;20037;-91
2022/03/01 01:57:14;;;;;;;20.30;3.40;;;5.00;99.90;;;;;;4888552;29;20059;-91
2022/03/01 01:59:40;;;;;;;20.08;3.72;;;4.90;99.90;;;;;;4888195;29;20051;-92
2022/03/01 02:02:06;;;;;;;14.95;3.35;;;4.90;99.90;;;;;;4886806;29;20060;-91
2022/03/01 02:04:31;;;;;;;12.45;2.50;;;4.90;99.90;;;;;;4884537;29;20025;-92
2022/03/01 02:06:57;;;;;;;19.55;3.38;;;4.80;99.90;;;;;;4883455;29;20033;-90
2022/03/01 02:09:23;;;;;;;17.52;3.15;;;4.80;99.90;;;;;;4887332;29;20639;-91
2022/03/01 02:11:48;;;;;;;15.60;2.92;;;4.80;99.90;;;;;;4883844;29;20025;-90
2022/03/01 02:14:14;;;;;;;12.50;3.83;;;4.80;99.90;;;;;;4883438;29;20057;-90
2022/03/01 02:16:41;;;;;;;14.65;2.88;;;4.80;99.90;;;;;;4883820;29;20033;-91
2022/03/01 02:19:12;;;;;;;18.15;3.83;;;4.80;99.90;;;;;;4883072;29;20132;-91
2022/03/01 02:21:50;;;;;;;13.40;2.75;;;4.80;99.90;;;;;;4882708;29;20100;-92
2022/03/01 02:24:18;;;;;;;12.00;2.60;;;4.80;99.90;;;;;;4882096;29;20041;-93
2022/03/01 02:26:43;;;;;;;21.70;3.80;;;4.70;99.90;;;;;;4881679;29;20053;-91
2022/03/01 02:29:09;;;;;;;10.55;2.60;;;4.80;99.90;;;;;;4881793;29;20079;-91
2022/03/01 02:31:35;;;;;;;9.73;2.58;;;4.70;99.90;;;;;;4880589;29;20029;-92
2022/03/01 02:34:01;;;;;;;21.55;3.40;;;4.70;99.90;;;;;;4881229;29;20483;-91
2022/03/01 02:36:27;;;;;;;15.73;3.47;;;4.70;99.90;;;;;;4882428;29;20093;-90
2022/03/01 02:38:53;;;;;;;13.35;2.88;;;4.60;99.90;;;;;;4881956;29;20060;-91
2022/03/01 02:41:19;;;;;;;22.85;3.67;;;4.60;99.90;;;;;;4882301;29;20033;-91
2022/03/01 02:43:44;;;;;;;17.95;2.60;;;4.60;99.90;;;;;;4882389;29;20036;-91
2022/03/01 02:46:10;;;;;;;18.63;3.15;;;4.50;99.90;;;;;;4885061;29;20017;-92
2022/03/01 02:48:36;;;;;;;14.63;4.00;;;4.50;99.90;;;;;;4884275;29;20041;-90
2022/03/01 02:51:01;;;;;;;24.20;3.50;;;4.50;99.90;;;;;;4884262;29;20237;-90
2022/03/01 02:53:27;;;;;;;20.85;3.08;;;4.50;99.90;;;;;;4883692;29;20100;-90
2022/03/01 02:55:53;;;;;;;17.92;2.97;;;4.50;99.90;;;;;;4882394;29;20128;-91
2022/03/01 02:58:19;;;;;;;10.63;2.95;;;4.50;99.90;;;;;;4881092;29;20120;-89
2022/03/01 03:00:44;;;;;;;19.92;2.83;;;4.50;99.90;;;;;;4880882;29;20029;-91
2022/03/01 03:03:13;;;;;;;20.38;3.92;;;4.50;99.90;;;;;;4881326;29;20124;-92
2022/03/01 03:05:39;;;;;;;24.48;4.25;;;4.50;99.90;;;;;;4881773;29;20033;-91
2022/03/01 03:08:05;;;;;;;17.90;3.13;;;4.50;99.90;;;;;;4880767;29;20040;-91
2022/03/01 03:10:33;;;;;;;17.40;2.70;;;4.40;99.90;;;;;;4881266;29;20040;-92
2022/03/01 03:13:03;;;;;;;19.42;4.43;;;4.40;99.90;;;;;;4880727;29;20029;-90
2022/03/01 03:15:28;;;;;;;16.65;3.13;;;4.40;99.90;;;;;;4880911;29;20411;-90
2022/03/01 03:17:55;;;;;;;20.40;3.22;;;4.40;99.90;;;;;;4880187;29;20035;-92
2022/03/01 03:20:22;;;;;;;20.83;3.35;;;4.40;99.90;;;;;;4879558;29;20041;-91
2022/03/01 03:22:48;;;;;;;20.05;3.05;;;4.40;99.90;;;;;;4879557;29;20031;-91
2022/03/01 03:25:14;;;;;;;19.55;3.00;;;4.40;99.90;;;;;;4872114;29;20033;-91
2022/03/01 03:27:40;;;;;;;14.35;3.08;;;4.40;99.90;;;;;;4860378;29;20057;-92
2022/03/01 03:30:07;;;;;;;16.60;3.13;;;4.30;99.90;;;;;;4860601;29;20052;-91
2022/03/01 03:32:34;;;;;;;14.40;2.35;;;4.40;99.90;;;;;;4860489;29;20029;-91
2022/03/01 03:35:00;;;;;;;13.13;2.60;;;4.40;99.90;;;;;;4860110;29;20046;-91
2022/03/01 03:37:26;;;;;;;17.90;3.03;;;4.40;99.90;;;;;;4860553;29;20025;-91
2022/03/01 03:39:52;;;;;;;12.88;2.88;;;4.30;99.90;;;;;;4860355;29;20038;-91
2022/03/01 03:42:18;;;;;;;20.52;3.42;;;4.30;99.90;;;;;;4860533;29;20033;-92
2022/03/01 03:44:43;;;;;;;16.30;2.75;;;4.30;99.90;;;;;;4860256;29;20119;-91
2022/03/01 03:47:09;;;;;;;21.58;3.00;;;4.30;99.90;;;;;;4861344;29;20062;-90
2022/03/01 03:49:37;;;;;;;15.82;2.90;;;4.20;99.90;;;;;;4859954;29;20488;-90
2022/03/01 03:52:04;;;;;;;18.60;2.58;;;4.30;99.90;;;;;;4859324;29;20029;-89
2022/03/01 03:54:30;;;;;;;16.70;3.88;;;4.30;99.90;;;;;;4859435;29;20496;-90
2022/03/01 03:56:55;;;;;;;20.55;3.88;;;4.20;99.90;;;;;;4860803;29;20029;-89
2022/03/01 03:59:21;;;;;;;19.95;2.85;;;4.20;99.90;;;;;;4859790;29;20026;-91
2022/03/01 04:01:47;;;;;;;16.33;2.75;;;4.20;99.90;;;;;;4859785;29;20033;-91
2022/03/01 04:04:13;;;;;;;12.35;2.45;;;4.20;99.90;;;;;;4859093;29;20097;-92
2022/03/01 04:06:39;;;;;;;20.10;2.78;;;4.20;99.90;;;;;;4859338;29;20476;-90
2022/03/01 04:09:05;;;;;;;12.73;2.88;;;4.10;99.90;;;;;;4859272;29;20117;-91
2022/03/01 04:11:31;;;;;;;10.88;2.05;;;4.10;99.90;;;;;;4859403;29;20038;-91
2022/03/01 04:13:57;;;;;;;18.83;4.22;;;4.10;99.90;;;;;;4859103;29;20060;-91
2022/03/01 04:16:23;;;;;;;11.65;2.10;;;4.10;99.90;;;;;;4859111;29;20030;-90
2022/03/01 04:18:49;;;;;;;12.73;2.33;;;4.10;99.90;;;;;;4859253;29;20125;-90
2022/03/01 04:21:16;;;;;;;13.40;3.05;;;4.00;99.90;;;;;;4860006;29;20029;-91
2022/03/01 04:23:42;;;;;;;15.90;2.45;;;4.00;99.90;;;;;;4864183;29;20417;-92
2022/03/01 04:26:08;;;;;;;13.18;2.25;;;4.00;99.90;;;;;;4866954;29;20026;-92
2022/03/01 04:28:33;;;;;;;10.18;1.80;;;4.00;99.90;;;;;;4861228;29;20034;-91
2022/03/01 04:31:00;;;;;;;9.95;2.17;;;4.00;99.90;;;;;;4860138;29;20034;-92
2022/03/01 04:33:26;;;;;;;13.10;1.90;;;3.90;99.90;;;;;;4860165;29;20029;-91
2022/03/01 04:35:51;;;;;;;9.43;1.77;;;3.90;99.90;;;;;;4860482;29;20035;-91
2022/03/01 04:38:17;;;;;;;11.35;2.13;;;3.90;99.90;;;;;;4864787;29;20057;-91
2022/03/01 04:40:43;;;;;;;9.07;1.95;;;3.90;99.90;;;;;;4871191;29;20029;-91
2022/03/01 04:43:09;;;;;;;8.50;2.03;;;3.90;99.90;;;;;;4870080;29;20440;-91
2022/03/01 04:45:35;;;;;;;10.48;2.13;;;3.90;99.90;;;;;;4865680;29;20080;-90
2022/03/01 04:48:00;;;;;;;9.95;1.83;;;3.80;99.90;;;;;;4865804;29;20555;-91
2022/03/01 04:50:27;;;;;;;10.20;2.00;;;3.80;99.90;;;;;;4860835;29;20052;-91
2022/03/01 04:52:53;;;;;;;16.73;2.42;;;3.80;99.90;;;;;;4859244;29;20030;-92
2022/03/01 04:55:24;;;;;;;19.05;3.97;;;3.80;99.90;;;;;;4857861;29;20035;-90
2022/03/01 04:57:49;;;;;;;14.73;3.10;;;3.80;99.90;;;;;;4858989;29;20033;-92
2022/03/01 05:00:15;;;;;;;9.20;1.52;;;3.70;99.90;;;;;;4859044;29;20086;-91
2022/03/01 05:02:43;;;;;;;13.60;2.33;;;3.70;99.90;;;;;;4859013;29;20037;-91
2022/03/01 05:05:13;;;;;;;8.00;2.42;;;3.70;99.90;;;;;;4860669;29;20065;-91
2022/03/01 05:07:40;;;;;;;8.48;2.20;;;3.70;99.90;;;;;;4862219;29;20072;-90
2022/03/01 05:10:07;;;;;;;10.05;1.67;;;3.70;99.90;;;;;;4862216;29;20147;-91
2022/03/01 05:12:39;;;;;;;12.68;2.22;;;3.70;99.90;;;;;;4862199;29;20411;-91
2022/03/01 05:15:05;;;;;;;13.30;2.70;;;3.70;99.90;;;;;;4861749;29;20053;-90
2022/03/01 05:17:31;;;;;;;11.68;2.00;;;3.70;99.90;;;;;;4862046;29;20113;-90
2022/03/01 05:19:57;;;;;;;12.90;1.80;;;3.70;99.90;;;;;;4862019;29;20137;-91
2022/03/01 05:22:22;;;;;;;7.82;1.48;;;3.60;99.90;;;;;;4861819;29;20052;-91
2022/03/01 05:24:48;;;;;;;9.52;1.70;;;3.60;99.90;;;;;;4861547;29;20034;-91
2022/03/01 05:27:14;;;;;;;11.63;2.05;;;3.60;99.90;;;;;;4861636;29;20053;-91
2022/03/01 05:29:39;;;;;;;10.73;1.60;;;3.60;99.90;;;;;;4861570;29;20048;-91
2022/03/01 05:32:06;;;;;;;7.38;1.42;;;3.60;99.90;;;;;;4861886;29;20097;-90
2022/03/01 05:34:32;;;;;;;11.88;1.77;;;3.50;99.90;;;;;;4861674;29;20040;-91
2022/03/01 05:36:57;;;;;;;12.70;1.58;;;3.50;99.90;;;;;;4861729;29;20034;-90
2022/03/01 05:39:23;;;;;;;11.88;2.05;;;3.50;99.90;;;;;;4862744;29;20051;-90
2022/03/01 05:41:49;;;;;;;12.70;2.42;;;3.50;99.90;;;;;;4861572;29;20032;-90
2022/03/01 05:44:15;;;;;;;13.20;1.92;;;3.40;99.90;;;;;;4861747;29;20635;-90
2022/03/01 05:46:40;;;;;;;16.58;2.88;;;3.40;99.90;;;;;;4861165;29;20030;-91
2022/03/01 05:49:07;;;;;;;6.38;1.55;;;3.40;99.90;;;;;;4861058;29;20044;-91
2022/03/01 05:51:33;;;;;;;8.18;1.77;;;3.30;99.90;;;;;;4861760;29;20061;-92
2022/03/01 05:53:59;;;;;;;11.23;1.50;;;3.30;99.90;;;;;;4862944;29;20074;-91
2022/03/01 05:56:25;;;;;;;16.80;2.65;;;3.30;99.90;;;;;;4861253;29;20064;-91
2022/03/01 05:58:51;;;;;;;12.00;1.90;;;3.20;99.90;;;;;;4861181;29;20029;-91
2022/03/01 06:01:17;;;;;;;5.20;1.42;;;3.20;99.90;;;;;;4861072;29;20058;-90
2022/03/01 06:03:43;;;;;;;9.27;1.85;;;3.20;99.90;;;;;;4861561;29;20045;-91
2022/03/01 06:06:08;;;;;;;7.75;1.60;;;3.30;99.90;;;;;;4862428;29;20033;-91
2022/03/01 06:08:34;;;;;;;10.95;1.77;;;3.20;99.90;;;;;;4861614;29;20045;-91
2022/03/01 06:10:59;;;;;;;16.08;3.22;;;3.20;99.90;;;;;;4861564;29;20029;-91
2022/03/01 06:13:25;;;;;;;11.90;2.00;;;3.20;99.90;;;;;;4861198;29;20057;-92
2022/03/01 06:15:51;;;;;;;10.90;1.52;;;3.20;99.90;;;;;;4862569;29;20120;-91
2022/03/01 06:18:16;;;;;;;14.07;2.28;;;3.10;99.90;;;;;;4861403;29;20037;-90
2022/03/01 06:20:44;;;;;;;13.30;2.08;;;3.10;99.90;;;;;;4860811;29;20037;-91
2022/03/01 06:23:10;;;;;;;9.48;1.80;;;3.10;99.90;;;;;;4860888;29;20029;-91
2022/03/01 06:25:36;;;;;;;14.68;2.35;;;3.10;99.90;;;;;;4860893;29;20110;-92
2022/03/01 06:28:02;;;;;;;11.00;1.52;;;3.10;99.90;;;;;;4860567;29;20040;-92
2022/03/01 06:30:28;;;;;;;9.85;1.48;;;3.10;99.90;;;;;;4860515;29;20033;-92
2022/03/01 06:32:54;;;;;;;10.20;1.45;;;3.10;99.90;;;;;;4860381;29;20506;-92
2022/03/01 06:35:20;;;;;;;12.20;3.15;;;3.10;99.90;;;;;;4860871;29;20048;-92
2022/03/01 06:37:46;;;;;;;15.18;2.17;;;3.00;99.90;;;;;;4860766;29;20101;-92
2022/03/01 06:40:15;;;;;;;15.55;1.65;;;3.00;99.90;;;;;;4861224;29;20037;-88
2022/03/01 06:42:41;;;;;;;18.92;4.43;;;3.00;99.90;;;;;;4861943;29;20034;-92
2022/03/01 06:45:07;;;;;;;13.07;2.65;;;3.00;99.90;;;;;;4861494;29;20029;-89
2022/03/01 06:48:23;;;;;;;11.88;1.88;;;3.00;99.90;;;;;;4861470;29;20112;-91
2022/03/01 06:50:49;;;;;;;14.35;1.98;;;3.00;99.90;;;;;;4861788;29;20141;-90
2022/03/01 06:53:15;;;;;;;3.63;0.98;;;3.00;99.90;;;;;;4862988;29;20069;-92
2022/03/01 06:55:44;;;;;;;12.98;1.52;;;3.00;99.90;;;;;;4866220;29;20026;-91
2022/03/01 06:58:11;;;;;;;13.65;1.83;;;3.00;99.90;;;;;;4870497;29;20029;-91
2022/03/01 07:00:37;;;;;;;9.25;1.70;;;3.00;99.90;;;;;;4875532;29;20033;-92
2022/03/01 07:03:03;;;;;;;9.38;1.92;;;3.00;99.90;;;;;;4876826;29;20077;-91
2022/03/01 07:05:28;;;;;;;11.23;1.50;;;3.00;99.90;;;;;;4883185;29;20028;-91
2022/03/01 07:07:54;;;;;;;11.77;1.95;;;3.00;99.90;;;;;;4891385;29;20084;-92
2022/03/01 07:10:20;;;;;;;9.50;1.40;;;3.00;99.90;;;;;;4877248;29;20033;-92
2022/03/01 07:12:47;;;;;;;7.45;1.30;;;3.00;99.90;;;;;;4875154;29;20021;-91
2022/03/01 07:15:13;;;;;;;12.88;2.97;;;3.00;99.90;;;;;;4873917;29;20139;-92
2022/03/01 07:17:39;;;;;;;11.60;1.70;;;3.00;99.90;;;;;;4870564;29;20468;-90
2022/03/01 07:20:09;;;;;;;14.98;1.50;;;3.00;99.90;;;;;;4869615;29;20032;-92
2022/03/01 07:22:35;;;;;;;7.35;1.35;;;3.00;99.90;;;;;;4868995;29;20029;-91
2022/03/01 07:25:01;;;;;;;7.05;1.23;;;3.00;99.90;;;;;;4875810;29;20048;-92
2022/03/01 07:27:27;;;;;;;12.20;1.75;;;3.00;99.90;;;;;;4877988;29;20131;-90
2022/03/01 07:29:53;;;;;;;8.07;1.48;;;3.00;99.90;;;;;;4871318;29;20045;-91
2022/03/01 07:32:19;;;;;;;8.93;1.50;;;3.00;99.90;;;;;;4868030;29;20057;-90
2022/03/01 07:34:44;;;;;;;21.10;1.88;;;3.00;99.90;;;;;;4866267;29;20436;-90
2022/03/01 07:39:36;;;;;;;13.63;2.33;;;3.10;99.90;;;;;;4840580;29;20029;-91
2022/03/01 07:42:02;;;;;;;10.40;1.98;;;3.10;99.90;;;;;;4864940;29;20073;-91
2022/03/01 07:44:29;;;;;;;17.63;1.85;;;3.10;99.90;;;;;;4861735;29;20445;-90
2022/03/01 07:46:55;;;;;;;9.40;1.70;;;3.10;99.90;;;;;;4892199;29;20120;-91
2022/03/01 07:49:21;;;;;;;9.85;1.83;;;3.10;99.90;;;;;;4861420;29;20044;-90
2022/03/01 07:51:47;;;;;;;8.38;1.38;;;3.10;99.90;;;;;;4861291;29;20026;-90
2022/03/01 07:54:13;;;;;;;10.07;1.65;;;3.10;99.90;;;;;;4861565;29;20499;-91
2022/03/01 07:56:40;;;;;;;8.05;1.63;;;3.20;99.90;;;;;;4861931;29;20032;-90
2022/03/01 07:59:06;;;;;;;13.13;1.67;;;3.20;99.90;;;;;;4861830;29;20030;-90
2022/03/01 08:01:32;;;;;;;13.95;1.80;;;3.20;99.90;;;;;;4862089;29;20034;-92
2022/03/01 08:03:57;;;;;;;5.75;1.38;;;3.20;99.90;;;;;;4893495;29;20034;-91
2022/03/01 08:06:23;;;;;;;6.47;1.45;;;3.30;99.90;;;;;;4883520;29;20041;-90
2022/03/01 08:08:49;;;;;;;11.57;1.55;;;3.30;99.90;;;;;;4892179;29;20089;-91
2022/03/01 08:11:15;;;;;;;9.57;1.63;;;3.30;99.90;;;;;;4894768;29;20021;-92
2022/03/01 08:13:41;;;;;;;8.48;1.70;;;3.30;99.90;;;;;;4901661;29;20041;-90
2022/03/01 08:16:07;;;;;;;10.77;1.70;;;3.30;99.90;;;;;;4888801;29;20048;-91
2022/03/01 08:18:32;;;;;;;6.40;1.48;;;3.40;99.90;;;;;;4888195;29;20045;-92
2022/03/01 08:20:58;;;;;;;13.82;2.80;;;3.40;99.90;;;;;;4884785;29;20440;-91
2022/03/01 08:23:25;;;;;;;9.70;1.38;;;3.50;99.90;;;;;;4880830;29;20029;-92
2022/03/01 08:25:51;;;;;;;13.77;2.08;;;3.50;99.90;;;;;;4879955;29;20573;-92
2022/03/01 08:28:17;;;;;;;11.85;1.67;;;3.50;99.90;;;;;;4879322;29;20147;-91
2022/03/01 08:30:43;;;;;;;16.73;2.05;;;3.60;99.90;;;;;;4880922;29;20143;-93
2022/03/01 08:33:09;;;;;;;13.65;1.65;;;3.60;99.90;;;;;;4881864;29;20061;-92
2022/03/01 08:35:36;;;;;;;8.88;1.25;;;3.60;99.90;;;;;;4881434;29;20044;-92
2022/03/01 08:38:05;;;;;;;13.63;1.88;;;3.70;99.90;;;;;;4880399;29;20088;-93
2022/03/01 08:40:33;;;;;;;14.15;1.60;;;3.70;99.90;;;;;;4882949;29;20032;-92
2022/03/01 08:42:59;;;;;;;12.70;2.00;;;3.70;99.90;;;;;;4889149;29;20021;-93
2022/03/01 08:45:27;;;;;;;10.02;1.40;;;3.80;99.90;;;;;;4887643;29;20034;-92
2022/03/01 08:47:53;;;;;;;5.22;1.35;;;3.90;99.90;;;;;;4886524;29;20040;-91
2022/03/01 08:50:19;;;;;;;8.68;1.85;;;3.90;99.90;;;;;;4886968;29;20045;-92
2022/03/01 08:52:44;;;;;;;11.73;2.58;;;4.00;99.90;;;;;;4885508;29;20092;-92
2022/03/01 08:55:10;;;;;;;9.00;1.40;;;4.10;99.90;;;;;;4881616;29;20096;-92
2022/03/01 08:57:37;;;;;;;7.97;3.05;;;4.20;99.90;;;;;;4883770;29;20029;-91
2022/03/01 09:00:09;;;;;;;13.25;3.20;;;4.30;99.90;;;;;;4888250;29;20029;-93
2022/03/01 09:02:34;;;;;;;13.80;1.80;;;4.40;99.90;;;;;;4893830;29;20025;-91
2022/03/01 09:05:01;;;;;;;9.00;1.48;;;4.50;99.90;;;;;;4891103;29;20097;-91
2022/03/01 09:07:26;;;;;;;8.35;2.65;;;4.60;99.90;;;;;;4882023;29;20100;-91
2022/03/01 09:09:53;;;;;;;15.23;1.73;;;4.70;99.90;;;;;;4881807;29;20048;-91
2022/03/01 09:12:19;;;;;;;13.27;3.05;;;4.80;99.90;;;;;;4881784;29;20049;-92
2022/03/01 09:17:10;;;;;;;10.95;1.95;;;4.90;99.90;;;;;;4862195;29;20037;-91
2022/03/01 09:19:36;;;;;;;14.52;3.22;;;4.90;99.90;;;;;;4862169;29;20034;-92
2022/03/01 09:22:02;;;;;;;12.43;1.50;;;5.00;99.90;;;;;;4861843;29;20467;-91
2022/03/01 09:24:28;;;;;;;11.70;1.83;;;5.00;99.90;;;;;;4862861;29;20116;-90
2022/03/01 09:26:54;;;;;;;7.43;1.23;;;5.10;99.90;;;;;;4862689;29;20037;-89
2022/03/01 09:29:20;;;;;;;11.52;1.67;;;5.10;99.90;;;;;;4863454;29;20061;-90
2022/03/01 09:31:45;;;;;;;11.88;1.75;;;5.20;99.90;;;;;;4868627;29;20026;-90
2022/03/01 09:34:11;;;;;;;10.18;1.80;;;5.30;99.90;;;;;;4872414;29;20025;-90
2022/03/01 09:36:37;;;;;;;11.02;1.65;;;5.40;99.90;;;;;;4865635;29;20022;-90
2022/03/01 09:39:03;;;;;;;11.68;2.60;;;5.50;99.90;;;;;;4862584;29;20037;-90
2022/03/01 09:41:31;;;;;;;10.30;2.10;;;5.50;99.90;;;;;;4872211;29;20062;-90
2022/03/01 09:43:58;;;;;;;11.57;1.58;;;5.60;99.90;;;;;;4872725;29;20038;-90
2022/03/01 09:46:24;;;;;;;15.25;2.25;;;5.70;99.90;;;;;;4870245;29;20025;-91
2022/03/01 09:48:50;;;;;;;12.02;1.67;;;5.80;99.90;;;;;;4862746;29;20066;-90
2022/03/01 09:51:19;;;;;;;6.55;1.55;;;5.90;99.90;;;;;;4866340;29;20184;-91
2022/03/01 09:53:47;;;;;;;13.07;2.00;;;6.00;99.90;;;;;;4868858;29;20053;-91
2022/03/01 09:56:13;;;;;;;9.95;2.53;;;6.10;99.90;;;;;;4871026;29;20033;-91
2022/03/01 09:58:39;;;;;;;7.78;1.70;;;6.30;99.90;;;;;;4863941;29;20037;-92
2022/03/01 10:01:05;;;;;;;9.68;1.55;;;6.40;99.90;;;;;;4862036;29;20531;-92
2022/03/01 10:03:35;;;;;;;10.82;1.88;;;6.60;99.90;;;;;;4862085;29;20089;-90
2022/03/01 10:06:09;;;;;;;8.60;1.70;;;6.90;99.90;;;;;;4863215;29;20108;-94
2022/03/01 10:08:35;;;;;;;8.88;1.90;;;7.10;99.90;;;;;;4872020;29;20037;-92
2022/03/01 10:11:01;;;;;;;17.42;1.70;;;7.40;99.90;;;;;;4875435;29;20033;-92
2022/03/01 10:13:33;;;;;;;5.50;1.60;;;7.70;99.90;;;;;;4866254;29;20057;-92
2022/03/01 10:16:13;;;;;;;16.20;1.60;;;7.90;99.90;;;;;;4867936;29;20025;-92
2022/03/01 10:18:41;;;;;;;8.32;2.05;;;8.20;99.90;;;;;;4892083;29;20034;-91
2022/03/01 10:21:12;;;;;;;8.20;1.98;;;8.40;99.90;;;;;;4873896;29;20093;-91
2022/03/01 10:23:55;;;;;;;10.52;1.98;;;8.50;99.90;;;;;;4868442;29;20111;-89
2022/03/01 10:26:30;;;;;;;9.40;1.60;;;8.70;99.90;;;;;;4892018;29;20492;-89
2022/03/01 10:28:57;;;;;;;13.48;1.45;;;8.90;99.90;;;;;;4869851;29;20142;-90
2022/03/01 10:31:29;;;;;;;9.40;1.95;;;9.10;99.90;;;;;;4869178;29;20037;-89
2022/03/01 10:34:04;;;;;;;16.20;2.22;;;9.20;99.90;;;;;;4866200;29;20029;-91
2022/03/01 10:36:36;;;;;;;12.82;1.80;;;9.40;99.90;;;;;;4868504;29;20026;-91
2022/03/01 10:39:09;;;;;;;10.02;2.03;;;9.60;99.90;;;;;;4870004;29;20032;-90
2022/03/01 10:41:38;;;;;;;6.88;1.70;;;9.80;99.90;;;;;;4868022;29;20025;-91
2022/03/01 10:44:05;;;;;;;6.68;1.30;;;10.10;99.90;;;;;;4867894;29;20029;-92
2022/03/01 10:46:40;;;;;;;12.07;2.20;;;10.20;99.90;;;;;;4872474;29;20070;-91
2022/03/01 10:49:09;;;;;;;9.00;1.95;;;10.40;99.80;;;;;;4870580;29;20052;-92
2022/03/01 10:51:56;;;;;;;10.00;2.60;;;10.40;97.80;;;;;;4870028;29;20082;-91
2022/03/01 10:54:36;;;;;;;9.18;2.65;;;10.40;97.10;;;;;;4869891;29;20056;-90
2022/03/01 10:57:22;;;;;;;6.75;1.50;;;10.40;96.50;;;;;;4868967;29;20029;-91
2022/03/01 10:59:49;;;;;;;17.98;1.85;;;10.50;96.40;;;;;;4873466;29;20037;-90
2022/03/01 11:02:19;;;;;;;14.60;2.58;;;10.60;95.70;;;;;;4878270;29;20025;-90
2022/03/01 11:04:45;;;;;;;12.40;2.00;;;10.70;95.20;;;;;;4879474;29;20045;-90
2022/03/01 11:07:12;;;;;;;9.63;1.95;;;10.70;94.60;;;;;;4878454;29;20089;-92
2022/03/01 11:09:40;;;;;;;13.57;1.75;;;10.70;94.30;;;;;;4873739;29;20045;-90
2022/03/01 11:12:08;;;;;;;11.25;1.90;;;10.80;94.00;;;;;;4890471;29;20033;-89
2022/03/01 11:14:49;;;;;;;13.48;2.65;;;10.90;94.10;;;;;;4892207;29;20041;-92
2022/03/01 11:17:24;;;;;;;;;;;11.20;93.90;;;;;;4886056;29;20021;-91
2022/03/01 11:19:54;;;;;;;9.48;1.92;;;11.60;93.40;;;;;;4895429;29;20029;-91
2022/03/01 11:22:24;;;;;;;6.75;2.55;;;11.90;93.00;;;;;;4887263;29;20044;-90
2022/03/01 11:24:51;;;;;;;7.30;1.85;;;12.10;91.50;;;;;;4892106;29;20048;-90
2022/03/01 11:27:22;;;;;;;9.70;1.75;;;12.20;91.10;;;;;;4893154;29;20048;-90
2022/03/01 11:29:49;;;;;;;10.93;2.25;;;12.20;90.00;;;;;;4883392;29;20082;-91
2022/03/01 11:32:20;;;;;;;12.82;1.80;;;12.30;90.00;;;;;;4889346;29;20048;-92
2022/03/01 11:34:58;;;;;;;10.30;1.90;;;12.30;88.40;;;;;;4885850;29;20029;-93
2022/03/01 11:37:24;;;;;;;12.40;1.90;;;12.20;87.40;;;;;;4873813;29;20025;-93
2022/03/01 11:39:55;;;;;;;10.20;2.78;;;12.20;86.50;;;;;;4876309;29;20547;-93
2022/03/01 11:42:21;;;;;;;10.45;1.90;;;12.30;86.60;;;;;;4879106;29;20376;-94
2022/03/01 11:44:54;;;;;;;6.07;1.83;;;12.50;86.50;;;;;;4872203;29;20044;-93
2022/03/01 11:47:33;;;;;;;13.90;2.63;;;12.90;86.20;;;;;;4870467;29;20365;-93
2022/03/01 11:50:17;;;;;;;8.93;1.95;;;13.10;84.40;;;;;;4868189;29;20408;-93
2022/03/01 11:52:49;;;;;;;11.32;2.05;;;13.10;83.70;;;;;;4867144;29;20030;-93
2022/03/01 11:55:18;;;;;;;5.32;2.05;;;13.20;83.00;;;;;;4867325;29;20128;-93
2022/03/01 11:57:44;;;;;;;9.15;1.80;;;13.30;82.30;;;;;;4863084;29;20217;-91
2022/03/01 12:00:15;;;;;;;8.35;1.85;;;13.30;81.50;;;;;;4869015;29;20033;-93
2022/03/01 12:02:47;;;;;;;9.95;2.05;;;13.30;80.00;;;;;;4867672;29;20487;-92
2022/03/01 12:05:23;;;;;;;8.55;2.00;;;13.20;79.90;;;;;;4868839;29;20037;-92
2022/03/01 12:07:50;;;;;;;10.48;2.00;;;13.30;80.00;;;;;;4869221;29;20030;-92
2022/03/01 12:10:25;;;;;;;12.82;2.28;;;13.30;79.20;;;;;;4873455;29;20048;-94
2022/03/01 12:12:57;;;;;;;11.38;2.17;;;13.20;79.30;;;;;;4868984;29;20022;-94
2022/03/01 12:15:29;;;;;;;10.50;1.83;;;13.20;79.20;;;;;;4872472;29;20042;-94
2022/03/01 12:17:55;;;;;;;13.32;1.92;;;13.20;79.70;;;;;;4875457;29;20040;-93
2022/03/01 12:20:22;;;;;;;10.85;2.20;;;13.10;79.30;;;;;;4881107;29;20040;-93
2022/03/01 12:22:58;;;;;;;11.20;2.10;;;13.10;79.00;;;;;;4885709;29;20025;-92
2022/03/01 12:25:25;;;;;;;7.18;1.42;;;12.90;79.00;;;;;;4906318;29;20025;-93
2022/03/01 12:27:52;;;;;;;10.98;1.77;;;12.80;79.30;;;;;;4881899;29;20029;-95
2022/03/01 12:30:22;;;;;;;10.45;2.13;;;12.70;79.30;;;;;;4864342;29;20258;-95
2022/03/01 12:32:53;;;;;;;12.10;2.88;;;12.50;79.40;;;;;;4863248;29;20040;-95
2022/03/01 12:35:20;;;;;;;14.68;1.88;;;12.50;79.90;;;;;;4863646;29;20049;-94
2022/03/01 12:37:46;;;;;;;10.90;1.65;;;12.50;80.10;;;;;;4863500;29;20022;-93
2022/03/01 12:40:12;;;;;;;10.68;2.15;;;12.60;80.50;;;;;;4878923;29;20029;-92
2022/03/01 12:42:38;;;;;;;11.07;2.17;;;12.80;80.90;;;;;;4886607;29;20036;-93
2022/03/01 12:45:04;;;;;;;11.98;1.92;;;13.10;80.00;;;;;;4885565;29;20095;-93
2022/03/01 12:47:30;;;;;;;12.18;1.88;;;13.40;79.10;;;;;;4887303;29;20494;-94
2022/03/01 12:49:56;;;;;;;10.82;1.75;;;13.70;78.50;;;;;;4882241;29;20033;-92
2022/03/01 12:52:24;;;;;;;10.13;2.20;;;13.90;77.30;;;;;;4880930;29;20029;-91
2022/03/01 12:54:53;;;;;;;8.38;1.95;;;14.10;76.60;;;;;;4881541;29;20044;-92